Time;durP1;ratioP1;P1;durP2;ratioP2;P2;SDS_P1;SDS_P2;PMS_P1;PMS_P2;Temp;Humidity;BMP_temperature;BMP_pressure;BME280_temperature;BME280_humidity;BME280_pressure;Samples;Min_cycle;Max_cycle;Signal;HPM_P1;HPM_P2
2023/01/23 14:54:18;;;;;;;7.68;2.58;;;11.80;93.10;;;;;;5683159;23;20056;-77
2023/01/23 14:56:45;;;;;;;7.63;2.20;;;11.80;93.90;;;;;;5005304;28;20050;-77
2023/01/23 14:59:28;;;;;;;6.22;2.03;;;11.60;94.00;;;;;;5006005;28;20030;-77
2023/01/23 15:02:01;;;;;;;5.95;1.75;;;11.60;94.20;;;;;;5001926;28;20391;-77
2023/01/23 15:04:28;;;;;;;9.45;2.40;;;11.60;93.90;;;;;;5005069;28;20030;-77
2023/01/23 15:06:59;;;;;;;5.10;2.83;;;11.60;93.50;;;;;;5004914;28;20035;-78
2023/01/23 15:09:40;;;;;;;15.98;5.60;;;11.60;93.80;;;;;;5002747;28;20073;-78
2023/01/23 15:12:14;;;;;;;5.30;2.30;;;11.60;93.30;;;;;;5004731;28;20031;-77
2023/01/23 15:14:40;;;;;;;8.15;3.92;;;11.50;94.30;;;;;;5001510;28;20034;-76
2023/01/23 15:17:18;;;;;;;;;;;11.40;95.40;;;;;;5002326;28;20034;-76
2023/01/23 15:19:54;;;;;;;7.68;2.45;;;11.40;95.20;;;;;;5003634;28;19978;-78
2023/01/23 15:22:23;;;;;;;4.28;2.30;;;11.40;95.80;;;;;;5003108;28;20467;-76
2023/01/23 15:24:49;;;;;;;4.93;2.20;;;11.30;95.90;;;;;;5003750;28;20034;-76
2023/01/23 15:27:31;;;;;;;;;;;11.20;96.00;;;;;;5006853;28;20052;-76
2023/01/23 15:30:34;;;;;;;5.60;2.00;;;11.30;95.20;;;;;;5006157;28;19952;-76
2023/01/23 15:33:09;;;;;;;5.28;2.03;;;11.30;95.90;;;;;;5007127;28;20037;-79
2023/01/23 15:35:36;;;;;;;3.75;2.30;;;11.20;96.30;;;;;;5022647;28;20116;-77
2023/01/23 15:38:03;;;;;;;6.63;1.63;;;11.20;96.00;;;;;;5008368;28;20022;-77
2023/01/23 15:40:31;;;;;;;3.72;1.75;;;11.20;96.20;;;;;;5005677;28;20027;-77
2023/01/23 15:43:01;;;;;;;6.93;1.52;;;11.20;96.40;;;;;;5005178;28;20030;-77
2023/01/23 15:45:26;;;;;;;4.88;1.67;;;11.20;95.90;;;;;;5006518;28;20033;-77
2023/01/23 15:47:52;;;;;;;;;;;11.20;95.90;;;;;;5002886;28;20038;-77
2023/01/23 15:50:17;;;;;;;8.05;1.80;;;11.30;94.80;;;;;;5004829;28;19913;-76
2023/01/23 15:52:43;;;;;;;;;;;11.30;94.90;;;;;;5006196;28;20029;-76
2023/01/23 15:55:09;;;;;;;5.70;2.05;;;11.30;95.20;;;;;;5000102;28;19918;-78
2023/01/23 15:57:35;;;;;;;5.05;2.10;;;11.30;95.50;;;;;;5002258;28;20056;-79
2023/01/23 16:00:00;;;;;;;;;;;11.20;96.30;;;;;;5002890;28;20082;-77
2023/01/23 16:02:26;;;;;;;5.90;1.90;;;11.20;95.70;;;;;;5005603;28;19937;-77
2023/01/23 16:04:52;;;;;;;;;;;11.20;95.60;;;;;;5007077;28;20499;-77
2023/01/23 16:07:45;;;;;;;6.50;2.00;;;11.30;95.30;;;;;;5003336;28;20351;-79
2023/01/23 16:10:20;;;;;;;9.02;2.70;;;11.30;95.50;;;;;;4999365;28;20430;-77
2023/01/23 16:12:48;;;;;;;7.15;2.20;;;11.30;95.30;;;;;;5020093;28;20090;-79
2023/01/23 16:15:20;;;;;;;7.22;1.83;;;11.20;95.90;;;;;;4998988;28;20026;-77
2023/01/23 16:17:47;;;;;;;5.57;2.10;;;11.20;96.00;;;;;;5000617;28;20030;-77
2023/01/23 16:20:19;;;;;;;8.65;2.35;;;11.30;95.30;;;;;;5004904;28;20026;-77
2023/01/23 16:22:49;;;;;;;6.05;2.33;;;11.40;94.60;;;;;;5006006;28;20023;-77
2023/01/23 16:25:32;;;;;;;5.85;1.83;;;11.50;93.90;;;;;;5007590;28;20038;-76
2023/01/23 16:27:58;;;;;;;3.83;1.40;;;11.60;92.50;;;;;;5009925;28;20053;-78
2023/01/23 16:30:25;;;;;;;2.28;1.20;;;11.80;91.70;;;;;;5010948;28;20473;-79
2023/01/23 16:32:52;;;;;;;5.22;2.00;;;11.80;91.10;;;;;;5012767;28;20038;-79
2023/01/23 16:35:19;;;;;;;6.63;2.05;;;11.90;90.40;;;;;;5027856;28;20050;-81
2023/01/23 16:37:48;;;;;;;4.30;1.77;;;11.90;90.70;;;;;;5008615;28;20061;-78
2023/01/23 16:40:18;;;;;;;4.13;1.50;;;11.90;90.80;;;;;;5010409;28;20049;-78
2023/01/23 16:42:46;;;;;;;4.25;1.70;;;11.80;89.80;;;;;;5012452;28;20022;-79
2023/01/23 16:45:23;;;;;;;5.28;2.05;;;12.00;90.40;;;;;;5013712;28;20037;-77
2023/01/23 16:47:50;;;;;;;3.30;1.50;;;12.00;90.00;;;;;;5013970;28;20038;-79
2023/01/23 16:50:25;;;;;;;5.45;1.98;;;12.00;88.30;;;;;;5012764;28;20036;-80
2023/01/23 16:53:19;;;;;;;5.40;1.50;;;12.00;88.10;;;;;;5013132;28;20037;-79
2023/01/23 16:55:45;;;;;;;6.70;2.42;;;12.10;87.20;;;;;;5027646;28;20098;-79
2023/01/23 16:58:18;;;;;;;;;;;12.10;87.50;;;;;;5013532;28;20033;-79
2023/01/23 17:00:45;;;;;;;4.03;1.58;;;12.00;87.50;;;;;;5010570;28;19933;-78
2023/01/23 17:03:21;;;;;;;4.75;2.55;;;12.00;88.70;;;;;;5008725;28;20035;-79
2023/01/23 17:05:47;;;;;;;12.18;6.03;;;12.00;90.10;;;;;;5017205;28;20078;-80
2023/01/23 17:08:15;;;;;;;;;;;12.00;89.20;;;;;;5018986;28;20038;-80
2023/01/23 17:10:41;;;;;;;20.73;11.55;;;12.10;90.10;;;;;;5018104;28;19913;-80
2023/01/23 17:13:08;;;;;;;;;;;12.10;88.20;;;;;;5018031;28;20022;-80
2023/01/23 17:15:34;;;;;;;8.85;3.25;;;12.10;89.90;;;;;;5016374;28;19909;-79
2023/01/23 17:18:00;;;;;;;;;;;12.00;90.10;;;;;;5015819;28;20041;-79
2023/01/23 17:20:30;;;;;;;11.13;3.10;;;12.00;90.00;;;;;;4998867;28;19941;-78
2023/01/23 17:22:57;;;;;;;8.38;2.80;;;12.10;89.40;;;;;;4995072;28;20062;-78
2023/01/23 17:25:26;;;;;;;5.38;1.90;;;12.10;88.50;;;;;;4997048;28;20570;-79
2023/01/23 17:27:52;;;;;;;6.50;2.20;;;12.10;88.80;;;;;;4996688;28;20019;-80
2023/01/23 17:30:22;;;;;;;6.65;3.05;;;12.10;89.60;;;;;;5000998;28;20019;-79
2023/01/23 17:32:51;;;;;;;8.02;2.08;;;12.00;90.00;;;;;;4997944;28;20023;-80
2023/01/23 17:35:27;;;;;;;3.90;1.85;;;12.00;90.30;;;;;;4996262;28;20038;-79
2023/01/23 17:37:56;;;;;;;4.22;2.10;;;12.00;90.40;;;;;;5001672;28;20035;-80
2023/01/23 17:40:23;;;;;;;3.13;1.60;;;12.00;91.30;;;;;;5001352;28;20027;-79
2023/01/23 17:42:49;;;;;;;7.18;2.25;;;11.90;92.30;;;;;;5000970;28;20058;-79
2023/01/23 17:45:16;;;;;;;;;;;11.80;92.70;;;;;;4995172;28;20031;-78
2023/01/23 17:47:45;;;;;;;12.35;5.40;;;11.70;92.30;;;;;;4997166;28;20363;-79
2023/01/23 17:50:20;;;;;;;7.40;2.03;;;11.70;92.70;;;;;;4997461;28;20041;-78
2023/01/23 17:52:48;;;;;;;5.07;1.70;;;11.70;92.20;;;;;;4996596;28;20047;-79
2023/01/23 17:55:16;;;;;;;6.75;1.70;;;11.80;92.60;;;;;;4995737;28;20055;-80
2023/01/23 17:57:42;;;;;;;4.05;2.03;;;11.80;92.80;;;;;;4997566;28;20050;-79
2023/01/23 18:00:22;;;;;;;4.05;1.67;;;11.90;91.90;;;;;;4997136;28;20034;-79
2023/01/23 18:03:12;;;;;;;6.45;1.77;;;11.90;91.90;;;;;;4990973;28;20023;-79
2023/01/23 18:05:38;;;;;;;4.60;1.92;;;11.80;92.60;;;;;;4996665;28;20034;-78
2023/01/23 18:08:05;;;;;;;3.55;1.65;;;11.70;93.30;;;;;;4995164;28;20034;-79
2023/01/23 18:10:33;;;;;;;3.53;1.50;;;11.60;94.10;;;;;;4993950;28;20415;-79
2023/01/23 18:13:24;;;;;;;4.50;1.88;;;11.60;93.90;;;;;;4981122;28;20038;-79
2023/01/23 18:16:00;;;;;;;7.05;2.15;;;11.70;93.70;;;;;;4995984;28;20071;-80
2023/01/23 18:18:33;;;;;;;6.95;1.98;;;11.60;94.00;;;;;;4996480;28;20034;-80
2023/01/23 18:21:02;;;;;;;4.30;1.60;;;11.60;93.50;;;;;;4994834;28;20039;-79
2023/01/23 18:23:36;;;;;;;7.40;1.90;;;11.80;92.80;;;;;;4994778;28;20011;-79
2023/01/23 18:26:13;;;;;;;6.72;2.35;;;11.80;93.00;;;;;;4994330;28;20039;-79
2023/01/23 18:28:53;;;;;;;5.53;2.20;;;11.80;93.60;;;;;;4994545;28;20095;-78
2023/01/23 18:31:42;;;;;;;4.70;2.20;;;11.60;93.90;;;;;;4991989;28;20030;-79
2023/01/23 18:34:28;;;;;;;2.70;1.42;;;11.60;93.70;;;;;;4992100;28;20027;-78
2023/01/23 18:37:11;;;;;;;7.45;3.28;;;11.60;93.50;;;;;;4991488;28;20058;-78
2023/01/23 18:39:53;;;;;;;7.45;3.25;;;11.60;93.60;;;;;;4991301;28;20019;-78
2023/01/23 18:42:27;;;;;;;6.18;2.22;;;11.60;93.10;;;;;;4994295;28;20034;-79
2023/01/23 18:45:00;;;;;;;8.10;2.00;;;11.70;92.90;;;;;;4993628;28;20027;-79
2023/01/23 18:47:26;;;;;;;3.13;1.83;;;11.60;93.20;;;;;;4993975;28;20038;-79
2023/01/23 18:49:53;;;;;;;5.38;2.30;;;11.60;93.80;;;;;;4995053;28;20082;-80
2023/01/23 18:52:49;;;;;;;3.55;1.45;;;11.60;94.00;;;;;;4994908;28;20027;-80
2023/01/23 18:55:30;;;;;;;2.97;1.30;;;11.60;93.30;;;;;;4992326;28;20137;-79
2023/01/23 18:58:37;;;;;;;6.47;1.75;;;11.60;93.60;;;;;;4993535;28;20061;-78
2023/01/23 19:01:16;;;;;;;10.95;1.65;;;11.60;93.50;;;;;;4973312;28;20031;-79
2023/01/23 19:03:45;;;;;;;7.97;2.10;;;11.60;93.40;;;;;;4987766;28;20034;-78
2023/01/23 19:06:21;;;;;;;4.05;1.85;;;11.60;93.70;;;;;;4990987;28;20023;-79
2023/01/23 19:08:49;;;;;;;5.03;2.00;;;11.50;93.80;;;;;;4991933;28;20018;-79
2023/01/23 19:11:42;;;;;;;3.53;1.70;;;11.60;93.20;;;;;;4987663;28;20038;-78
2023/01/23 19:14:34;;;;;;;3.58;1.30;;;11.70;93.20;;;;;;4990457;28;20023;-78
2023/01/23 19:17:22;;;;;;;5.65;1.80;;;11.80;92.50;;;;;;4992910;28;20480;-79
2023/01/23 19:20:13;;;;;;;5.38;1.83;;;11.70;93.20;;;;;;4986905;28;20500;-78
2023/01/23 19:22:51;;;;;;;4.55;1.70;;;11.70;92.60;;;;;;4994151;28;20003;-79
2023/01/23 19:25:18;;;;;;;4.38;1.80;;;11.70;92.60;;;;;;4993922;28;20034;-78
2023/01/23 19:27:51;;;;;;;4.50;1.95;;;11.70;92.30;;;;;;4994267;28;20035;-78
2023/01/23 19:30:20;;;;;;;4.55;1.63;;;11.70;92.40;;;;;;4994853;28;20050;-79
2023/01/23 19:32:47;;;;;;;6.53;2.22;;;11.70;92.10;;;;;;4991152;28;20019;-79
2023/01/23 19:35:13;;;;;;;4.78;1.98;;;11.70;92.20;;;;;;4994695;28;20034;-78
2023/01/23 19:37:39;;;;;;;;;;;11.80;91.60;;;;;;4996330;28;20026;-79
2023/01/23 19:40:11;;;;;;;7.00;1.92;;;11.80;91.30;;;;;;4994771;28;19969;-79
2023/01/23 19:42:42;;;;;;;4.78;1.95;;;11.80;91.30;;;;;;4995589;28;20027;-78
2023/01/23 19:45:16;;;;;;;4.07;1.75;;;11.80;91.10;;;;;;4991228;28;20033;-78
2023/01/23 19:47:44;;;;;;;7.07;2.20;;;11.90;90.30;;;;;;4990747;28;20053;-80
2023/01/23 19:50:16;;;;;;;6.28;1.95;;;11.90;90.60;;;;;;4991478;28;20041;-79
2023/01/23 19:52:43;;;;;;;4.28;1.77;;;11.90;90.00;;;;;;4989996;28;20033;-78
2023/01/23 19:55:20;;;;;;;3.25;1.50;;;11.90;90.20;;;;;;4992976;28;20508;-79
2023/01/23 19:57:47;;;;;;;9.30;1.80;;;11.80;90.20;;;;;;4996215;28;20030;-80
2023/01/23 20:00:14;;;;;;;;;;;11.80;89.60;;;;;;4996088;28;20019;-79
2023/01/23 20:02:41;;;;;;;;;;;11.80;88.10;;;;;;4993282;28;19906;-78
2023/01/23 20:05:08;;;;;;;4.05;1.60;;;11.80;87.80;;;;;;4991127;28;20311;-78
2023/01/23 20:07:34;;;;;;;7.10;1.63;;;11.80;86.80;;;;;;4992557;28;20033;-79
2023/01/23 20:10:00;;;;;;;;;;;11.90;85.80;;;;;;4992365;28;20023;-79
2023/01/23 20:12:26;;;;;;;6.05;1.77;;;11.90;85.80;;;;;;4993915;28;19944;-78
2023/01/23 20:14:54;;;;;;;6.47;1.75;;;11.90;86.30;;;;;;5007885;28;20046;-78
2023/01/23 20:17:20;;;;;;;4.47;2.13;;;12.00;86.10;;;;;;5011201;28;20030;-78
2023/01/23 20:19:46;;;;;;;;;;;12.00;85.90;;;;;;5008479;28;20026;-78
2023/01/23 20:22:13;;;;;;;4.50;2.30;;;12.00;86.10;;;;;;5010815;28;19912;-79
2023/01/23 20:24:39;;;;;;;5.45;1.38;;;11.90;86.30;;;;;;5009129;28;20442;-79
2023/01/23 20:27:06;;;;;;;3.47;1.55;;;12.00;86.40;;;;;;5013141;28;20038;-79
2023/01/23 20:29:34;;;;;;;5.97;2.00;;;12.00;86.80;;;;;;5009915;28;20034;-79
2023/01/23 20:32:00;;;;;;;5.97;1.55;;;12.10;87.30;;;;;;5010137;28;20023;-79
2023/01/23 20:34:26;;;;;;;;;;;12.10;86.50;;;;;;5012715;28;20030;-79
2023/01/23 20:36:52;;;;;;;5.22;2.25;;;12.00;87.50;;;;;;5012359;28;19973;-79
2023/01/23 20:39:18;;;;;;;4.43;2.00;;;12.10;87.40;;;;;;5011001;28;20022;-79
2023/01/23 20:41:44;;;;;;;5.53;2.05;;;12.10;88.30;;;;;;5011837;28;20036;-79
2023/01/23 20:44:11;;;;;;;4.38;2.30;;;12.20;87.30;;;;;;4993698;28;20026;-79
2023/01/23 20:46:37;;;;;;;5.50;2.00;;;12.20;87.90;;;;;;4991035;28;20054;-79
2023/01/23 20:49:04;;;;;;;5.43;2.03;;;12.10;89.20;;;;;;4991426;28;20034;-80
2023/01/23 20:51:30;;;;;;;4.32;1.58;;;12.10;88.00;;;;;;4974548;28;20027;-79
2023/01/23 20:53:56;;;;;;;7.43;2.47;;;12.10;89.30;;;;;;4991885;28;20030;-78
2023/01/23 20:56:28;;;;;;;5.72;2.50;;;12.00;89.80;;;;;;4993027;28;20022;-78
2023/01/23 21:04:29;;;;;;;2.58;1.67;;;12.10;89.10;;;;;;5014085;28;20089;-80
2023/01/23 21:06:55;;;;;;;7.28;2.13;;;12.00;89.20;;;;;;5011649;28;20050;-80
2023/01/23 21:09:22;;;;;;;6.30;2.20;;;12.10;89.30;;;;;;5009454;28;20017;-80
2023/01/23 21:11:50;;;;;;;3.38;1.83;;;12.00;89.50;;;;;;5011248;28;20011;-79
2023/01/23 21:14:17;;;;;;;5.90;2.13;;;12.00;89.70;;;;;;5011273;28;20076;-78
2023/01/23 21:16:43;;;;;;;5.00;2.70;;;12.00;90.00;;;;;;5014114;28;20029;-81
2023/01/23 21:19:09;;;;;;;;;;;12.00;89.20;;;;;;5014208;28;20030;-79
2023/01/23 21:21:35;;;;;;;4.18;2.28;;;12.00;88.40;;;;;;5013200;28;19937;-80
2023/01/23 21:24:01;;;;;;;4.32;1.95;;;12.00;88.50;;;;;;5012040;28;20015;-79
2023/01/23 21:26:28;;;;;;;5.28;2.28;;;12.10;88.00;;;;;;5000543;28;20034;-80
2023/01/23 21:28:56;;;;;;;4.82;2.60;;;12.00;88.60;;;;;;5011634;28;20038;-80
2023/01/23 21:31:25;;;;;;;4.55;2.85;;;12.00;88.50;;;;;;5010022;28;20022;-79
2023/01/23 21:33:51;;;;;;;6.50;3.38;;;11.90;89.10;;;;;;5009282;28;20110;-78
2023/01/23 21:36:21;;;;;;;6.72;2.63;;;11.90;89.80;;;;;;5012427;28;20026;-79
2023/01/23 21:38:48;;;;;;;6.40;2.20;;;11.80;90.00;;;;;;5011347;28;20124;-79
2023/01/23 21:41:14;;;;;;;6.72;2.38;;;11.80;90.90;;;;;;5009326;28;20469;-79
2023/01/23 21:43:40;;;;;;;;;;;11.70;91.00;;;;;;5000099;28;20011;-79
2023/01/23 21:46:06;;;;;;;4.20;2.20;;;11.70;91.10;;;;;;5008003;28;19965;-78
2023/01/23 21:48:32;;;;;;;;;;;11.60;91.30;;;;;;5006017;28;20039;-79
2023/01/23 21:51:13;;;;;;;7.15;2.67;;;11.50;91.50;;;;;;5013849;28;19890;-80
2023/01/23 21:53:41;;;;;;;8.77;2.80;;;11.50;91.80;;;;;;5017672;28;20042;-79
2023/01/23 21:56:08;;;;;;;6.07;2.45;;;11.50;91.80;;;;;;5016433;28;20065;-80
2023/01/23 21:58:34;;;;;;;6.63;2.92;;;11.40;92.30;;;;;;5015421;28;20043;-80
2023/01/23 22:03:47;;;;;;;6.03;2.78;;;11.20;93.30;;;;;;5017198;28;20041;-79
2023/01/23 22:06:13;;;;;;;6.72;2.80;;;11.10;93.60;;;;;;5013025;28;20471;-79
2023/01/23 22:08:40;;;;;;;6.57;2.97;;;11.10;94.40;;;;;;5014701;28;20034;-80
2023/01/23 22:11:07;;;;;;;4.22;2.65;;;10.90;94.70;;;;;;5016576;28;20026;-79
2023/01/23 22:13:33;;;;;;;8.32;3.03;;;11.00;94.90;;;;;;5015390;28;20037;-80
2023/01/23 22:15:59;;;;;;;;;;;10.90;95.10;;;;;;5015475;28;20030;-79
2023/01/23 22:18:25;;;;;;;5.37;2.90;;;10.80;94.40;;;;;;5015558;28;19906;-79
2023/01/23 22:20:56;;;;;;;7.45;3.40;;;11.00;94.10;;;;;;5016536;28;20027;-79
2023/01/23 22:23:22;;;;;;;5.88;2.90;;;10.90;94.60;;;;;;5015598;28;20030;-79
2023/01/23 22:25:50;;;;;;;6.90;2.78;;;10.90;94.60;;;;;;5016868;28;20026;-79
2023/01/23 22:28:16;;;;;;;6.47;2.88;;;10.80;94.90;;;;;;5016457;28;20086;-79
2023/01/23 22:30:42;;;;;;;6.40;3.33;;;10.80;94.90;;;;;;5013986;28;20114;-79
2023/01/23 22:33:08;;;;;;;;;;;10.80;95.30;;;;;;5015233;28;20030;-79
2023/01/23 22:35:41;;;;;;;8.05;2.92;;;10.80;95.20;;;;;;5016095;28;19913;-79
2023/01/23 22:38:09;;;;;;;5.97;3.00;;;10.80;94.40;;;;;;5014459;28;20022;-79
2023/01/23 22:40:35;;;;;;;7.18;2.75;;;10.80;94.20;;;;;;5012591;28;20019;-79
2023/01/23 22:43:01;;;;;;;;;;;10.80;94.60;;;;;;5015768;28;20065;-79
2023/01/23 22:45:27;;;;;;;7.93;3.33;;;10.70;94.60;;;;;;5013662;28;19910;-79
2023/01/23 22:47:53;;;;;;;7.57;3.72;;;10.70;94.50;;;;;;5015073;28;20034;-79
2023/01/23 22:50:19;;;;;;;7.20;2.78;;;10.70;94.40;;;;;;5015546;28;20105;-79
2023/01/23 22:52:45;;;;;;;;;;;10.70;94.80;;;;;;5014437;28;20031;-79
2023/01/23 22:55:11;;;;;;;5.85;2.70;;;10.70;94.20;;;;;;5014806;28;19925;-80
2023/01/23 22:57:37;;;;;;;5.60;3.13;;;10.90;94.40;;;;;;5015230;28;20050;-79
2023/01/23 23:00:05;;;;;;;;;;;10.70;94.00;;;;;;5015058;28;20026;-79
2023/01/23 23:02:30;;;;;;;6.15;3.22;;;10.60;93.50;;;;;;5015101;28;19898;-79
2023/01/23 23:04:56;;;;;;;;;;;10.70;93.30;;;;;;5015808;28;20034;-80
2023/01/23 23:07:22;;;;;;;6.20;2.60;;;10.70;92.80;;;;;;5015416;28;19928;-79
2023/01/23 23:09:47;;;;;;;;;;;10.70;92.90;;;;;;5015333;28;20010;-79
2023/01/23 23:12:13;;;;;;;5.45;3.42;;;10.70;92.40;;;;;;5014995;28;19906;-78
2023/01/23 23:14:40;;;;;;;;;;;10.60;92.60;;;;;;5016606;28;20082;-79
2023/01/23 23:17:06;;;;;;;7.43;3.30;;;10.70;92.30;;;;;;5011625;28;20004;-81
2023/01/23 23:19:32;;;;;;;6.22;2.40;;;10.50;92.20;;;;;;5004326;28;20038;-78
2023/01/23 23:21:57;;;;;;;;;;;10.50;92.50;;;;;;5005867;28;20037;-78
2023/01/23 23:24:23;;;;;;;4.88;2.45;;;10.50;92.10;;;;;;5004356;28;19910;-77
2023/01/23 23:26:49;;;;;;;;;;;10.40;92.80;;;;;;5005694;28;20023;-77
2023/01/23 23:29:18;;;;;;;6.78;2.13;;;10.30;92.70;;;;;;5003380;28;19906;-77
2023/01/23 23:31:43;;;;;;;5.88;2.63;;;10.30;92.00;;;;;;5002517;28;20041;-77
2023/01/23 23:34:09;;;;;;;;;;;10.30;91.90;;;;;;4999884;28;20414;-78
2023/01/23 23:36:35;;;;;;;8.00;3.30;;;10.20;91.80;;;;;;5001575;28;19914;-79
2023/01/23 23:39:01;;;;;;;;;;;10.20;92.00;;;;;;5011900;28;20033;-79
2023/01/23 23:41:27;;;;;;;4.55;1.90;;;10.10;91.00;;;;;;5001418;28;19909;-78
2023/01/23 23:43:52;;;;;;;;;;;10.10;91.50;;;;;;5006712;28;20109;-78
2023/01/23 23:46:18;;;;;;;6.90;2.78;;;10.00;91.50;;;;;;4999674;28;20171;-77
2023/01/23 23:48:46;;;;;;;;;;;9.90;91.30;;;;;;5007356;28;20030;-78
2023/01/23 23:51:15;;;;;;;5.90;2.28;;;9.80;91.10;;;;;;5004769;28;19897;-78
2023/01/23 23:53:41;;;;;;;5.93;2.63;;;9.90;90.50;;;;;;5004157;28;20030;-78
2023/01/23 23:56:07;;;;;;;;;;;10.00;90.10;;;;;;5006841;28;20050;-79
2023/01/23 23:58:36;;;;;;;5.65;2.25;;;9.90;90.10;;;;;;5011653;28;19913;-79
